Box Canyon, Idaho
Current Conditions -  °F | °C
As of 2:53 AM on Saturday 29 Nov 2014 (Local Time) from KRXE Reporting Station
Few Clouds Few Clouds  
Wind Chill: 35°   Ceiling: Unl
Heat Index: 43°   Visibility: 10mi
Dew Point: 21°   Wind: 17mph
Humidity: 42%   Direction: 210°SSW
Pressure: 29.59"   Gusts: NA
Location:  44.4566°N, 111.359°W
Report Text: KRXE 290953Z AUTO 21015KT 10SM FEW080 06/M06 A2959 RMK AO2 PK WND 22026/0855 SLP005 T00611061
Loading
Personal Weather Stations






























Interactive Weather Map New forecast layout! Learn more

10-Day Weather Forecast

Advertisements
Track Severe Weather on mobile